sensor_id;sensor_type;location;lat;lon;timestamp;P1;durP1;ratioP1;P2;durP2;ratioP2
79574;SDS011;69044;48.198;11.468;2024-01-27T00:00:41;2.30;;;1.40;;
79574;SDS011;69044;48.198;11.468;2024-01-27T00:03:08;2.22;;;1.30;;
79574;SDS011;69044;48.198;11.468;2024-01-27T00:05:35;3.22;;;1.80;;
79574;SDS011;69044;48.198;11.468;2024-01-27T00:08:03;3.80;;;1.77;;
79574;SDS011;69044;48.198;11.468;2024-01-27T00:10:31;3.03;;;1.60;;
79574;SDS011;69044;48.198;11.468;2024-01-27T00:12:58;4.22;;;2.08;;
79574;SDS011;69044;48.198;11.468;2024-01-27T00:15:25;4.45;;;1.67;;
79574;SDS011;69044;48.198;11.468;2024-01-27T00:17:53;4.22;;;1.60;;
79574;SDS011;69044;48.198;11.468;2024-01-27T00:20:20;3.58;;;1.80;;
79574;SDS011;69044;48.198;11.468;2024-01-27T00:22:47;1.92;;;1.55;;
79574;SDS011;69044;48.198;11.468;2024-01-27T00:25:14;3.88;;;1.58;;
79574;SDS011;69044;48.198;11.468;2024-01-27T00:27:43;3.80;;;1.58;;
79574;SDS011;69044;48.198;11.468;2024-01-27T00:30:10;3.30;;;1.63;;
79574;SDS011;69044;48.198;11.468;2024-01-27T00:32:38;2.55;;;1.60;;
79574;SDS011;69044;48.198;11.468;2024-01-27T00:35:07;5.13;;;1.92;;
79574;SDS011;69044;48.198;11.468;2024-01-27T00:37:35;6.20;;;1.95;;
79574;SDS011;69044;48.198;11.468;2024-01-27T00:40:02;3.00;;;1.67;;
79574;SDS011;69044;48.198;11.468;2024-01-27T00:42:29;2.65;;;1.70;;
79574;SDS011;69044;48.198;11.468;2024-01-27T00:44:58;3.80;;;1.83;;
79574;SDS011;69044;48.198;11.468;2024-01-27T00:47:25;3.03;;;1.80;;
79574;SDS011;69044;48.198;11.468;2024-01-27T00:49:52;3.70;;;1.88;;
79574;SDS011;69044;48.198;11.468;2024-01-27T00:52:20;2.58;;;1.90;;
79574;SDS011;69044;48.198;11.468;2024-01-27T00:54:47;3.45;;;1.73;;
79574;SDS011;69044;48.198;11.468;2024-01-27T00:57:14;4.78;;;1.67;;
79574;SDS011;69044;48.198;11.468;2024-01-27T00:59:41;2.50;;;1.73;;
79574;SDS011;69044;48.198;11.468;2024-01-27T01:02:10;3.85;;;2.03;;
79574;SDS011;69044;48.198;11.468;2024-01-27T01:04:37;4.38;;;2.10;;
79574;SDS011;69044;48.198;11.468;2024-01-27T01:07:04;2.53;;;1.67;;
79574;SDS011;69044;48.198;11.468;2024-01-27T01:09:31;3.95;;;1.90;;
79574;SDS011;69044;48.198;11.468;2024-01-27T01:11:58;3.72;;;1.83;;
79574;SDS011;69044;48.198;11.468;2024-01-27T01:14:25;2.95;;;1.50;;
79574;SDS011;69044;48.198;11.468;2024-01-27T01:16:52;3.00;;;1.60;;
79574;SDS011;69044;48.198;11.468;2024-01-27T01:19:21;2.58;;;1.63;;
79574;SDS011;69044;48.198;11.468;2024-01-27T01:21:49;3.10;;;1.60;;
79574;SDS011;69044;48.198;11.468;2024-01-27T01:24:16;3.00;;;1.55;;
79574;SDS011;69044;48.198;11.468;2024-01-27T01:26:43;5.40;;;2.10;;
79574;SDS011;69044;48.198;11.468;2024-01-27T01:29:10;2.80;;;1.60;;
79574;SDS011;69044;48.198;11.468;2024-01-27T01:31:37;3.72;;;1.50;;
79574;SDS011;69044;48.198;11.468;2024-01-27T01:34:04;2.92;;;1.63;;
79574;SDS011;69044;48.198;11.468;2024-01-27T01:36:33;3.15;;;1.60;;
79574;SDS011;69044;48.198;11.468;2024-01-27T01:39:00;2.45;;;1.60;;
79574;SDS011;69044;48.198;11.468;2024-01-27T01:41:27;3.78;;;1.60;;
79574;SDS011;69044;48.198;11.468;2024-01-27T01:43:54;4.32;;;1.80;;
79574;SDS011;69044;48.198;11.468;2024-01-27T01:46:21;3.88;;;1.50;;
79574;SDS011;69044;48.198;11.468;2024-01-27T01:48:49;3.50;;;1.60;;
79574;SDS011;69044;48.198;11.468;2024-01-27T01:51:16;4.00;;;1.60;;
79574;SDS011;69044;48.198;11.468;2024-01-27T01:53:45;3.58;;;1.88;;
79574;SDS011;69044;48.198;11.468;2024-01-27T01:56:15;5.22;;;1.90;;
79574;SDS011;69044;48.198;11.468;2024-01-27T01:58:42;3.58;;;2.13;;
79574;SDS011;69044;48.198;11.468;2024-01-27T02:01:09;4.35;;;1.88;;
79574;SDS011;69044;48.198;11.468;2024-01-27T02:03:36;3.50;;;2.00;;
79574;SDS011;69044;48.198;11.468;2024-01-27T02:06:04;4.35;;;2.00;;
79574;SDS011;69044;48.198;11.468;2024-01-27T02:08:31;2.65;;;1.55;;
79574;SDS011;69044;48.198;11.468;2024-01-27T02:10:59;3.13;;;1.77;;
79574;SDS011;69044;48.198;11.468;2024-01-27T02:13:28;4.32;;;2.05;;
79574;SDS011;69044;48.198;11.468;2024-01-27T02:15:55;4.32;;;1.90;;
79574;SDS011;69044;48.198;11.468;2024-01-27T02:18:22;2.65;;;1.65;;
79574;SDS011;69044;48.198;11.468;2024-01-27T02:20:50;2.92;;;1.90;;
79574;SDS011;69044;48.198;11.468;2024-01-27T02:23:17;4.80;;;2.10;;
79574;SDS011;69044;48.198;11.468;2024-01-27T02:25:45;2.78;;;1.90;;
79574;SDS011;69044;48.198;11.468;2024-01-27T02:28:12;2.72;;;1.80;;
79574;SDS011;69044;48.198;11.468;2024-01-27T02:30:39;3.28;;;1.85;;
79574;SDS011;69044;48.198;11.468;2024-01-27T02:33:07;3.72;;;1.70;;
79574;SDS011;69044;48.198;11.468;2024-01-27T02:35:34;3.42;;;1.80;;
79574;SDS011;69044;48.198;11.468;2024-01-27T02:38:01;3.88;;;2.28;;
79574;SDS011;69044;48.198;11.468;2024-01-27T02:40:29;5.47;;;2.25;;
79574;SDS011;69044;48.198;11.468;2024-01-27T02:42:57;2.78;;;1.80;;
79574;SDS011;69044;48.198;11.468;2024-01-27T02:45:24;3.97;;;1.52;;
79574;SDS011;69044;48.198;11.468;2024-01-27T02:47:51;2.95;;;1.92;;
79574;SDS011;69044;48.198;11.468;2024-01-27T02:50:18;3.20;;;2.00;;
79574;SDS011;69044;48.198;11.468;2024-01-27T02:52:46;3.92;;;2.20;;
79574;SDS011;69044;48.198;11.468;2024-01-27T02:55:13;5.68;;;2.03;;
79574;SDS011;69044;48.198;11.468;2024-01-27T02:57:40;2.80;;;1.50;;
79574;SDS011;69044;48.198;11.468;2024-01-27T03:00:09;2.72;;;1.50;;
79574;SDS011;69044;48.198;11.468;2024-01-27T03:02:37;6.80;;;1.52;;
79574;SDS011;69044;48.198;11.468;2024-01-27T03:05:04;3.80;;;1.73;;
79574;SDS011;69044;48.198;11.468;2024-01-27T03:07:33;3.08;;;1.70;;
79574;SDS011;69044;48.198;11.468;2024-01-27T03:10:00;2.50;;;1.85;;
79574;SDS011;69044;48.198;11.468;2024-01-27T03:12:27;3.63;;;1.70;;
79574;SDS011;69044;48.198;11.468;2024-01-27T03:14:55;3.30;;;1.65;;
79574;SDS011;69044;48.198;11.468;2024-01-27T03:17:23;3.20;;;1.70;;
79574;SDS011;69044;48.198;11.468;2024-01-27T03:19:50;3.42;;;1.90;;
79574;SDS011;69044;48.198;11.468;2024-01-27T03:22:17;3.88;;;1.73;;
79574;SDS011;69044;48.198;11.468;2024-01-27T03:24:45;2.60;;;1.52;;
79574;SDS011;69044;48.198;11.468;2024-01-27T03:27:12;4.75;;;1.80;;
79574;SDS011;69044;48.198;11.468;2024-01-27T03:29:39;3.15;;;1.83;;
79574;SDS011;69044;48.198;11.468;2024-01-27T03:32:06;5.88;;;1.50;;
79574;SDS011;69044;48.198;11.468;2024-01-27T03:34:35;6.03;;;1.70;;
79574;SDS011;69044;48.198;11.468;2024-01-27T03:37:02;3.33;;;1.92;;
79574;SDS011;69044;48.198;11.468;2024-01-27T03:39:29;2.88;;;1.80;;
79574;SDS011;69044;48.198;11.468;2024-01-27T03:41:56;4.35;;;2.00;;
79574;SDS011;69044;48.198;11.468;2024-01-27T03:44:23;3.15;;;1.75;;
79574;SDS011;69044;48.198;11.468;2024-01-27T03:46:50;4.25;;;2.03;;
79574;SDS011;69044;48.198;11.468;2024-01-27T03:49:17;5.20;;;1.88;;
79574;SDS011;69044;48.198;11.468;2024-01-27T03:51:46;2.40;;;1.48;;
79574;SDS011;69044;48.198;11.468;2024-01-27T03:54:13;4.00;;;1.75;;
79574;SDS011;69044;48.198;11.468;2024-01-27T03:56:40;4.18;;;1.90;;
79574;SDS011;69044;48.198;11.468;2024-01-27T03:59:07;5.85;;;2.42;;
79574;SDS011;69044;48.198;11.468;2024-01-27T04:01:37;5.82;;;2.20;;
79574;SDS011;69044;48.198;11.468;2024-01-27T04:04:05;4.20;;;2.25;;
79574;SDS011;69044;48.198;11.468;2024-01-27T04:06:35;2.78;;;1.88;;
79574;SDS011;69044;48.198;11.468;2024-01-27T04:09:05;2.15;;;1.45;;
79574;SDS011;69044;48.198;11.468;2024-01-27T04:11:34;3.25;;;1.50;;
79574;SDS011;69044;48.198;11.468;2024-01-27T04:14:03;2.63;;;1.70;;
79574;SDS011;69044;48.198;11.468;2024-01-27T04:16:30;2.53;;;1.60;;
79574;SDS011;69044;48.198;11.468;2024-01-27T04:18:57;5.22;;;1.67;;
79574;SDS011;69044;48.198;11.468;2024-01-27T04:21:24;5.25;;;2.10;;
79574;SDS011;69044;48.198;11.468;2024-01-27T04:23:51;5.03;;;2.22;;
79574;SDS011;69044;48.198;11.468;2024-01-27T04:26:20;4.65;;;1.70;;
79574;SDS011;69044;48.198;11.468;2024-01-27T04:28:47;5.32;;;1.67;;
79574;SDS011;69044;48.198;11.468;2024-01-27T04:31:14;3.97;;;1.60;;
79574;SDS011;69044;48.198;11.468;2024-01-27T04:33:41;2.28;;;1.50;;
79574;SDS011;69044;48.198;11.468;2024-01-27T04:36:09;5.03;;;1.73;;
79574;SDS011;69044;48.198;11.468;2024-01-27T04:38:36;4.28;;;1.90;;
79574;SDS011;69044;48.198;11.468;2024-01-27T04:41:03;6.22;;;2.47;;
79574;SDS011;69044;48.198;11.468;2024-01-27T04:43:32;4.13;;;2.05;;
79574;SDS011;69044;48.198;11.468;2024-01-27T04:45:59;7.43;;;2.47;;
79574;SDS011;69044;48.198;11.468;2024-01-27T04:48:26;4.57;;;2.28;;
79574;SDS011;69044;48.198;11.468;2024-01-27T04:50:53;2.97;;;2.20;;
79574;SDS011;69044;48.198;11.468;2024-01-27T04:53:20;5.35;;;2.95;;
79574;SDS011;69044;48.198;11.468;2024-01-27T04:55:47;3.47;;;2.10;;
79574;SDS011;69044;48.198;11.468;2024-01-27T04:58:14;6.70;;;2.97;;
79574;SDS011;69044;48.198;11.468;2024-01-27T05:00:43;5.97;;;2.90;;
79574;SDS011;69044;48.198;11.468;2024-01-27T05:03:10;8.48;;;3.10;;
79574;SDS011;69044;48.198;11.468;2024-01-27T05:05:40;6.50;;;2.70;;
79574;SDS011;69044;48.198;11.468;2024-01-27T05:08:07;3.72;;;2.03;;
79574;SDS011;69044;48.198;11.468;2024-01-27T05:10:35;5.20;;;2.33;;
79574;SDS011;69044;48.198;11.468;2024-01-27T05:13:02;6.05;;;3.10;;
79574;SDS011;69044;48.198;11.468;2024-01-27T05:15:30;9.52;;;4.03;;
79574;SDS011;69044;48.198;11.468;2024-01-27T05:17:58;12.18;;;5.10;;
79574;SDS011;69044;48.198;11.468;2024-01-27T05:20:25;9.40;;;4.70;;
79574;SDS011;69044;48.198;11.468;2024-01-27T05:22:52;7.35;;;3.95;;
79574;SDS011;69044;48.198;11.468;2024-01-27T05:25:19;9.60;;;4.53;;
79574;SDS011;69044;48.198;11.468;2024-01-27T05:27:46;12.60;;;4.53;;
79574;SDS011;69044;48.198;11.468;2024-01-27T05:30:15;7.35;;;3.67;;
79574;SDS011;69044;48.198;11.468;2024-01-27T05:32:42;9.75;;;3.95;;
79574;SDS011;69044;48.198;11.468;2024-01-27T05:35:11;8.18;;;4.00;;
79574;SDS011;69044;48.198;11.468;2024-01-27T05:37:38;9.18;;;4.63;;
79574;SDS011;69044;48.198;11.468;2024-01-27T05:40:06;9.55;;;3.88;;
79574;SDS011;69044;48.198;11.468;2024-01-27T05:42:34;8.35;;;3.63;;
79574;SDS011;69044;48.198;11.468;2024-01-27T05:45:01;9.05;;;3.28;;
79574;SDS011;69044;48.198;11.468;2024-01-27T05:47:28;10.40;;;4.13;;
79574;SDS011;69044;48.198;11.468;2024-01-27T05:49:55;7.45;;;3.50;;
79574;SDS011;69044;48.198;11.468;2024-01-27T05:52:24;7.57;;;3.58;;
79574;SDS011;69044;48.198;11.468;2024-01-27T05:57:18;9.20;;;3.88;;
79574;SDS011;69044;48.198;11.468;2024-01-27T05:59:46;9.40;;;3.88;;
79574;SDS011;69044;48.198;11.468;2024-01-27T06:02:13;6.72;;;3.15;;
79574;SDS011;69044;48.198;11.468;2024-01-27T06:04:40;5.30;;;3.10;;
79574;SDS011;69044;48.198;11.468;2024-01-27T06:07:07;7.45;;;3.25;;
79574;SDS011;69044;48.198;11.468;2024-01-27T06:09:37;7.25;;;3.55;;
79574;SDS011;69044;48.198;11.468;2024-01-27T06:12:05;5.13;;;2.95;;
79574;SDS011;69044;48.198;11.468;2024-01-27T06:14:32;7.80;;;3.10;;
79574;SDS011;69044;48.198;11.468;2024-01-27T06:17:00;4.88;;;2.80;;
79574;SDS011;69044;48.198;11.468;2024-01-27T06:19:28;5.55;;;2.75;;
79574;SDS011;69044;48.198;11.468;2024-01-27T06:21:55;6.82;;;3.15;;
79574;SDS011;69044;48.198;11.468;2024-01-27T06:24:22;8.60;;;3.03;;
79574;SDS011;69044;48.198;11.468;2024-01-27T06:26:51;5.97;;;2.60;;
79574;SDS011;69044;48.198;11.468;2024-01-27T06:29:18;4.35;;;2.58;;
79574;SDS011;69044;48.198;11.468;2024-01-27T06:31:45;5.03;;;2.90;;
79574;SDS011;69044;48.198;11.468;2024-01-27T06:34:13;4.18;;;2.22;;
79574;SDS011;69044;48.198;11.468;2024-01-27T06:36:40;3.88;;;2.53;;
79574;SDS011;69044;48.198;11.468;2024-01-27T06:39:07;3.97;;;2.40;;
79574;SDS011;69044;48.198;11.468;2024-01-27T06:41:35;4.05;;;2.60;;
79574;SDS011;69044;48.198;11.468;2024-01-27T06:44:03;4.68;;;2.75;;
79574;SDS011;69044;48.198;11.468;2024-01-27T06:46:30;6.95;;;2.42;;
79574;SDS011;69044;48.198;11.468;2024-01-27T06:48:58;4.93;;;2.50;;
79574;SDS011;69044;48.198;11.468;2024-01-27T06:51:25;5.65;;;2.58;;
79574;SDS011;69044;48.198;11.468;2024-01-27T06:53:52;6.13;;;2.17;;
79574;SDS011;69044;48.198;11.468;2024-01-27T06:56:19;5.70;;;2.60;;
79574;SDS011;69044;48.198;11.468;2024-01-27T06:58:46;4.03;;;2.42;;
79574;SDS011;69044;48.198;11.468;2024-01-27T07:01:15;4.18;;;2.50;;
79574;SDS011;69044;48.198;11.468;2024-01-27T07:03:42;5.10;;;2.50;;
79574;SDS011;69044;48.198;11.468;2024-01-27T07:06:10;5.38;;;2.70;;
79574;SDS011;69044;48.198;11.468;2024-01-27T07:08:37;4.05;;;2.10;;
79574;SDS011;69044;48.198;11.468;2024-01-27T07:11:04;5.90;;;2.67;;
79574;SDS011;69044;48.198;11.468;2024-01-27T07:13:31;5.22;;;2.47;;
79574;SDS011;69044;48.198;11.468;2024-01-27T07:15:59;5.60;;;2.50;;
79574;SDS011;69044;48.198;11.468;2024-01-27T07:18:27;6.57;;;2.60;;
79574;SDS011;69044;48.198;11.468;2024-01-27T07:20:54;5.53;;;2.90;;
79574;SDS011;69044;48.198;11.468;2024-01-27T07:23:25;4.25;;;2.70;;
79574;SDS011;69044;48.198;11.468;2024-01-27T07:25:52;6.18;;;2.38;;
79574;SDS011;69044;48.198;11.468;2024-01-27T07:28:19;5.93;;;3.10;;
79574;SDS011;69044;48.198;11.468;2024-01-27T07:30:47;6.43;;;3.20;;
79574;SDS011;69044;48.198;11.468;2024-01-27T07:33:14;5.25;;;2.50;;
79574;SDS011;69044;48.198;11.468;2024-01-27T07:35:42;6.25;;;2.80;;
79574;SDS011;69044;48.198;11.468;2024-01-27T07:38:09;10.35;;;2.97;;
79574;SDS011;69044;48.198;11.468;2024-01-27T07:40:37;9.45;;;3.83;;
79574;SDS011;69044;48.198;11.468;2024-01-27T07:43:04;11.50;;;4.93;;
79574;SDS011;69044;48.198;11.468;2024-01-27T07:45:32;10.20;;;5.30;;
79574;SDS011;69044;48.198;11.468;2024-01-27T07:47:59;8.23;;;3.92;;
79574;SDS011;69044;48.198;11.468;2024-01-27T07:50:27;8.63;;;4.03;;
79574;SDS011;69044;48.198;11.468;2024-01-27T07:52:55;8.15;;;3.22;;
79574;SDS011;69044;48.198;11.468;2024-01-27T07:55:22;9.00;;;4.65;;
79574;SDS011;69044;48.198;11.468;2024-01-27T07:57:50;7.75;;;3.95;;
79574;SDS011;69044;48.198;11.468;2024-01-27T08:00:17;9.25;;;4.57;;
79574;SDS011;69044;48.198;11.468;2024-01-27T08:02:44;9.05;;;3.95;;
79574;SDS011;69044;48.198;11.468;2024-01-27T08:05:11;9.93;;;3.28;;
79574;SDS011;69044;48.198;11.468;2024-01-27T08:07:38;7.25;;;3.78;;
79574;SDS011;69044;48.198;11.468;2024-01-27T08:10:07;5.93;;;3.40;;
79574;SDS011;69044;48.198;11.468;2024-01-27T08:12:36;8.75;;;4.28;;
79574;SDS011;69044;48.198;11.468;2024-01-27T08:15:04;10.95;;;5.53;;
79574;SDS011;69044;48.198;11.468;2024-01-27T08:17:32;12.25;;;5.18;;
79574;SDS011;69044;48.198;11.468;2024-01-27T08:19:59;11.32;;;5.65;;
79574;SDS011;69044;48.198;11.468;2024-01-27T08:22:27;11.45;;;5.53;;
79574;SDS011;69044;48.198;11.468;2024-01-27T08:24:54;7.88;;;3.90;;
79574;SDS011;69044;48.198;11.468;2024-01-27T08:27:23;8.35;;;3.55;;
79574;SDS011;69044;48.198;11.468;2024-01-27T08:29:50;6.22;;;2.92;;
79574;SDS011;69044;48.198;11.468;2024-01-27T08:32:17;9.10;;;3.22;;
79574;SDS011;69044;48.198;11.468;2024-01-27T08:34:45;7.35;;;2.88;;
79574;SDS011;69044;48.198;11.468;2024-01-27T08:37:17;6.20;;;3.80;;
79574;SDS011;69044;48.198;11.468;2024-01-27T08:39:45;5.70;;;3.40;;
79574;SDS011;69044;48.198;11.468;2024-01-27T08:42:12;5.68;;;2.85;;
79574;SDS011;69044;48.198;11.468;2024-01-27T08:44:41;7.43;;;4.03;;
79574;SDS011;69044;48.198;11.468;2024-01-27T08:47:08;6.18;;;3.40;;
79574;SDS011;69044;48.198;11.468;2024-01-27T08:49:35;11.45;;;4.97;;
79574;SDS011;69044;48.198;11.468;2024-01-27T08:52:02;7.90;;;4.60;;
79574;SDS011;69044;48.198;11.468;2024-01-27T08:54:30;6.78;;;3.70;;
79574;SDS011;69044;48.198;11.468;2024-01-27T08:56:57;7.28;;;3.42;;
79574;SDS011;69044;48.198;11.468;2024-01-27T08:59:24;8.82;;;3.08;;
79574;SDS011;69044;48.198;11.468;2024-01-27T09:01:53;7.05;;;3.53;;
79574;SDS011;69044;48.198;11.468;2024-01-27T09:04:20;11.70;;;4.78;;
79574;SDS011;69044;48.198;11.468;2024-01-27T09:06:47;8.38;;;3.83;;
79574;SDS011;69044;48.198;11.468;2024-01-27T09:09:14;8.25;;;3.92;;
79574;SDS011;69044;48.198;11.468;2024-01-27T09:11:42;10.88;;;4.53;;
79574;SDS011;69044;48.198;11.468;2024-01-27T09:14:10;9.77;;;3.70;;
79574;SDS011;69044;48.198;11.468;2024-01-27T09:16:37;7.35;;;3.20;;
79574;SDS011;69044;48.198;11.468;2024-01-27T09:19:07;6.28;;;3.63;;
79574;SDS011;69044;48.198;11.468;2024-01-27T09:21:34;8.48;;;3.30;;
79574;SDS011;69044;48.198;11.468;2024-01-27T09:24:02;8.52;;;3.25;;
79574;SDS011;69044;48.198;11.468;2024-01-27T09:26:30;10.07;;;5.10;;
79574;SDS011;69044;48.198;11.468;2024-01-27T09:28:57;8.07;;;4.00;;
79574;SDS011;69044;48.198;11.468;2024-01-27T09:31:24;5.20;;;2.60;;
79574;SDS011;69044;48.198;11.468;2024-01-27T09:33:52;12.18;;;5.03;;
79574;SDS011;69044;48.198;11.468;2024-01-27T09:36:21;6.80;;;3.40;;
79574;SDS011;69044;48.198;11.468;2024-01-27T09:41:17;7.97;;;3.85;;
79574;SDS011;69044;48.198;11.468;2024-01-27T09:43:44;8.35;;;3.30;;
79574;SDS011;69044;48.198;11.468;2024-01-27T09:46:12;8.48;;;3.08;;
79574;SDS011;69044;48.198;11.468;2024-01-27T09:48:40;7.97;;;3.22;;
79574;SDS011;69044;48.198;11.468;2024-01-27T09:51:07;5.28;;;2.53;;
79574;SDS011;69044;48.198;11.468;2024-01-27T09:53:37;7.60;;;2.58;;
79574;SDS011;69044;48.198;11.468;2024-01-27T09:56:04;6.00;;;2.38;;
79574;SDS011;69044;48.198;11.468;2024-01-27T09:58:33;5.57;;;2.50;;
79574;SDS011;69044;48.198;11.468;2024-01-27T10:01:00;5.97;;;3.00;;
79574;SDS011;69044;48.198;11.468;2024-01-27T10:03:28;4.28;;;2.58;;
79574;SDS011;69044;48.198;11.468;2024-01-27T10:05:56;5.40;;;2.85;;
79574;SDS011;69044;48.198;11.468;2024-01-27T10:08:23;5.68;;;2.70;;
79574;SDS011;69044;48.198;11.468;2024-01-27T10:10:53;6.20;;;3.03;;
79574;SDS011;69044;48.198;11.468;2024-01-27T10:13:21;6.85;;;2.60;;
79574;SDS011;69044;48.198;11.468;2024-01-27T10:16:01;8.90;;;3.08;;
79574;SDS011;69044;48.198;11.468;2024-01-27T10:18:29;6.03;;;2.70;;
79574;SDS011;69044;48.198;11.468;2024-01-27T10:20:56;5.97;;;3.08;;
79574;SDS011;69044;48.198;11.468;2024-01-27T10:23:24;5.53;;;2.97;;
79574;SDS011;69044;48.198;11.468;2024-01-27T10:25:52;4.68;;;2.78;;
79574;SDS011;69044;48.198;11.468;2024-01-27T10:30:48;4.97;;;2.38;;
79574;SDS011;69044;48.198;11.468;2024-01-27T10:33:15;7.13;;;2.70;;
79574;SDS011;69044;48.198;11.468;2024-01-27T10:35:42;5.30;;;2.92;;
79574;SDS011;69044;48.198;11.468;2024-01-27T10:38:10;6.55;;;2.50;;
79574;SDS011;69044;48.198;11.468;2024-01-27T10:40:37;4.38;;;2.60;;
79574;SDS011;69044;48.198;11.468;2024-01-27T10:43:07;4.45;;;2.47;;
79574;SDS011;69044;48.198;11.468;2024-01-27T10:45:35;6.78;;;2.25;;
79574;SDS011;69044;48.198;11.468;2024-01-27T10:48:03;6.18;;;2.40;;
79574;SDS011;69044;48.198;11.468;2024-01-27T10:50:32;9.60;;;3.08;;
79574;SDS011;69044;48.198;11.468;2024-01-27T10:53:01;5.70;;;2.40;;
79574;SDS011;69044;48.198;11.468;2024-01-27T10:55:30;4.72;;;2.80;;
79574;SDS011;69044;48.198;11.468;2024-01-27T10:57:58;5.82;;;2.30;;
79574;SDS011;69044;48.198;11.468;2024-01-27T11:00:29;5.65;;;2.42;;
79574;SDS011;69044;48.198;11.468;2024-01-27T11:02:58;8.35;;;3.45;;
79574;SDS011;69044;48.198;11.468;2024-01-27T11:05:27;6.72;;;2.72;;
79574;SDS011;69044;48.198;11.468;2024-01-27T11:15:16;6.32;;;1.88;;
79574;SDS011;69044;48.198;11.468;2024-01-27T11:17:44;4.53;;;2.30;;
79574;SDS011;69044;48.198;11.468;2024-01-27T11:20:12;5.00;;;2.30;;
79574;SDS011;69044;48.198;11.468;2024-01-27T11:22:42;6.53;;;2.45;;
79574;SDS011;69044;48.198;11.468;2024-01-27T11:25:14;5.53;;;2.10;;
79574;SDS011;69044;48.198;11.468;2024-01-27T11:27:42;4.88;;;2.47;;
79574;SDS011;69044;48.198;11.468;2024-01-27T11:30:24;5.47;;;3.75;;
79574;SDS011;69044;48.198;11.468;2024-01-27T11:32:55;4.57;;;2.42;;
79574;SDS011;69044;48.198;11.468;2024-01-27T11:35:23;8.23;;;2.55;;
79574;SDS011;69044;48.198;11.468;2024-01-27T11:37:51;7.57;;;3.00;;
79574;SDS011;69044;48.198;11.468;2024-01-27T11:40:19;4.93;;;2.83;;
79574;SDS011;69044;48.198;11.468;2024-01-27T11:42:53;4.45;;;2.15;;
79574;SDS011;69044;48.198;11.468;2024-01-27T11:45:20;5.15;;;2.28;;
79574;SDS011;69044;48.198;11.468;2024-01-27T11:47:48;3.90;;;2.30;;
79574;SDS011;69044;48.198;11.468;2024-01-27T11:50:17;5.95;;;2.40;;
79574;SDS011;69044;48.198;11.468;2024-01-27T11:52:45;6.57;;;2.47;;
79574;SDS011;69044;48.198;11.468;2024-01-27T11:55:12;5.68;;;2.40;;
79574;SDS011;69044;48.198;11.468;2024-01-27T11:57:40;7.03;;;2.95;;
79574;SDS011;69044;48.198;11.468;2024-01-27T12:00:08;6.25;;;3.00;;
79574;SDS011;69044;48.198;11.468;2024-01-27T12:02:36;4.65;;;2.30;;
79574;SDS011;69044;48.198;11.468;2024-01-27T12:05:04;5.45;;;2.30;;
79574;SDS011;69044;48.198;11.468;2024-01-27T12:07:33;6.47;;;2.80;;
79574;SDS011;69044;48.198;11.468;2024-01-27T12:10:00;6.53;;;2.92;;
79574;SDS011;69044;48.198;11.468;2024-01-27T12:12:27;8.00;;;2.80;;
79574;SDS011;69044;48.198;11.468;2024-01-27T12:14:54;10.10;;;2.85;;
79574;SDS011;69044;48.198;11.468;2024-01-27T12:17:22;6.97;;;2.70;;
79574;SDS011;69044;48.198;11.468;2024-01-27T12:19:50;8.93;;;2.50;;
79574;SDS011;69044;48.198;11.468;2024-01-27T12:22:22;4.95;;;2.63;;
79574;SDS011;69044;48.198;11.468;2024-01-27T12:24:52;6.78;;;2.95;;
79574;SDS011;69044;48.198;11.468;2024-01-27T12:27:20;5.72;;;2.60;;
79574;SDS011;69044;48.198;11.468;2024-01-27T12:29:48;4.45;;;2.25;;
79574;SDS011;69044;48.198;11.468;2024-01-27T12:32:17;9.07;;;2.90;;
79574;SDS011;69044;48.198;11.468;2024-01-27T12:34:44;5.07;;;2.20;;
79574;SDS011;69044;48.198;11.468;2024-01-27T12:37:13;7.03;;;2.58;;
79574;SDS011;69044;48.198;11.468;2024-01-27T12:39:41;5.32;;;2.40;;
79574;SDS011;69044;48.198;11.468;2024-01-27T12:44:39;5.00;;;1.95;;
79574;SDS011;69044;48.198;11.468;2024-01-27T12:47:06;5.63;;;2.28;;
79574;SDS011;69044;48.198;11.468;2024-01-27T12:49:34;5.18;;;1.90;;
79574;SDS011;69044;48.198;11.468;2024-01-27T12:52:01;3.65;;;2.10;;
79574;SDS011;69044;48.198;11.468;2024-01-27T12:54:29;4.40;;;1.80;;
79574;SDS011;69044;48.198;11.468;2024-01-27T12:56:56;3.75;;;2.08;;
79574;SDS011;69044;48.198;11.468;2024-01-27T12:59:24;4.05;;;2.10;;
79574;SDS011;69044;48.198;11.468;2024-01-27T13:01:51;3.50;;;2.13;;
79574;SDS011;69044;48.198;11.468;2024-01-27T13:04:19;5.53;;;2.38;;
79574;SDS011;69044;48.198;11.468;2024-01-27T13:06:46;4.25;;;2.15;;
79574;SDS011;69044;48.198;11.468;2024-01-27T13:09:13;3.85;;;1.58;;
79574;SDS011;69044;48.198;11.468;2024-01-27T13:11:40;3.75;;;2.10;;
79574;SDS011;69044;48.198;11.468;2024-01-27T13:14:08;3.65;;;2.03;;
79574;SDS011;69044;48.198;11.468;2024-01-27T13:16:36;5.38;;;2.17;;
79574;SDS011;69044;48.198;11.468;2024-01-27T13:19:03;4.50;;;1.90;;
79574;SDS011;69044;48.198;11.468;2024-01-27T13:21:31;2.70;;;1.70;;
79574;SDS011;69044;48.198;11.468;2024-01-27T13:23:58;4.93;;;1.80;;
79574;SDS011;69044;48.198;11.468;2024-01-27T13:26:25;4.15;;;1.80;;
79574;SDS011;69044;48.198;11.468;2024-01-27T13:28:52;10.00;;;2.40;;
79574;SDS011;69044;48.198;11.468;2024-01-27T13:31:19;3.85;;;1.90;;
79574;SDS011;69044;48.198;11.468;2024-01-27T13:33:47;4.60;;;1.70;;
79574;SDS011;69044;48.198;11.468;2024-01-27T13:36:14;3.85;;;1.95;;
79574;SDS011;69044;48.198;11.468;2024-01-27T13:38:42;3.20;;;1.83;;
79574;SDS011;69044;48.198;11.468;2024-01-27T13:41:09;3.35;;;1.45;;
79574;SDS011;69044;48.198;11.468;2024-01-27T13:43:36;3.97;;;1.75;;
79574;SDS011;69044;48.198;11.468;2024-01-27T13:46:04;3.10;;;1.60;;
79574;SDS011;69044;48.198;11.468;2024-01-27T13:48:31;4.43;;;1.63;;
79574;SDS011;69044;48.198;11.468;2024-01-27T13:50:59;3.22;;;1.75;;
79574;SDS011;69044;48.198;11.468;2024-01-27T13:53:26;4.25;;;1.70;;
79574;SDS011;69044;48.198;11.468;2024-01-27T13:55:54;3.50;;;1.88;;
79574;SDS011;69044;48.198;11.468;2024-01-27T13:58:21;4.93;;;2.10;;
79574;SDS011;69044;48.198;11.468;2024-01-27T14:00:48;4.30;;;2.10;;
79574;SDS011;69044;48.198;11.468;2024-01-27T14:03:16;3.65;;;1.92;;
79574;SDS011;69044;48.198;11.468;2024-01-27T14:05:43;4.13;;;1.88;;
79574;SDS011;69044;48.198;11.468;2024-01-27T14:08:13;7.78;;;2.00;;
79574;SDS011;69044;48.198;11.468;2024-01-27T14:10:40;4.55;;;1.88;;
79574;SDS011;69044;48.198;11.468;2024-01-27T14:13:09;5.13;;;1.80;;
79574;SDS011;69044;48.198;11.468;2024-01-27T14:15:36;6.45;;;2.30;;
79574;SDS011;69044;48.198;11.468;2024-01-27T14:18:04;4.38;;;2.20;;
79574;SDS011;69044;48.198;11.468;2024-01-27T14:20:32;4.22;;;1.67;;
79574;SDS011;69044;48.198;11.468;2024-01-27T14:23:00;3.33;;;1.75;;
79574;SDS011;69044;48.198;11.468;2024-01-27T14:25:28;4.97;;;2.00;;
79574;SDS011;69044;48.198;11.468;2024-01-27T14:27:56;2.67;;;1.30;;
79574;SDS011;69044;48.198;11.468;2024-01-27T14:30:23;3.80;;;1.95;;
79574;SDS011;69044;48.198;11.468;2024-01-27T14:32:50;3.70;;;1.80;;
79574;SDS011;69044;48.198;11.468;2024-01-27T14:35:17;4.78;;;2.05;;
79574;SDS011;69044;48.198;11.468;2024-01-27T14:37:44;4.28;;;2.30;;
79574;SDS011;69044;48.198;11.468;2024-01-27T14:40:12;3.47;;;1.80;;
79574;SDS011;69044;48.198;11.468;2024-01-27T14:42:41;5.70;;;1.95;;
79574;SDS011;69044;48.198;11.468;2024-01-27T14:45:11;3.75;;;1.50;;
79574;SDS011;69044;48.198;11.468;2024-01-27T14:47:38;5.38;;;2.17;;
79574;SDS011;69044;48.198;11.468;2024-01-27T14:50:05;4.15;;;2.17;;
79574;SDS011;69044;48.198;11.468;2024-01-27T14:52:33;3.97;;;2.03;;